Time;durP1;ratioP1;P1;durP2;ratioP2;P2;SDS_P1;SDS_P2;PMS_P1;PMS_P2;Temp;Humidity;BMP_temperature;BMP_pressure;BME280_temperature;BME280_humidity;BME280_pressure;Samples;Min_cycle;Max_cycle;Signal;HPM_P1;HPM_P2
2021/05/19 00:01:55;;;;;;;13.60;5.07;;;23.60;33.00;;;;;;5064453;28;20025;-88
2021/05/19 00:04:21;;;;;;;9.15;5.10;;;23.60;32.60;;;;;;5058437;28;20095;-89
2021/05/19 00:06:47;;;;;;;14.82;5.50;;;23.50;32.80;;;;;;5056898;28;20722;-87
2021/05/19 00:09:15;;;;;;;20.25;5.60;;;23.50;33.10;;;;;;5050728;28;20021;-90
2021/05/19 00:11:45;;;;;;;10.57;4.50;;;23.50;33.00;;;;;;5068253;28;20025;-91
2021/05/19 00:14:12;;;;;;;9.93;4.80;;;23.50;33.20;;;;;;5072859;28;20486;-88
2021/05/19 00:16:38;;;;;;;;;;;23.50;33.50;;;;;;5039800;28;20079;-90
2021/05/19 00:19:04;;;;;;;11.95;5.05;;;23.50;33.00;;;;;;5046203;28;20350;-89
2021/05/19 00:21:31;;;;;;;8.55;5.47;;;23.40;33.40;;;;;;5055426;28;20017;-89
2021/05/19 00:23:57;;;;;;;10.85;5.88;;;23.30;33.40;;;;;;5056236;28;20030;-88
2021/05/19 00:26:24;;;;;;;10.32;5.28;;;23.30;33.40;;;;;;5057469;28;20028;-90
2021/05/19 00:28:53;;;;;;;12.13;5.70;;;23.20;33.50;;;;;;5056881;28;20048;-90
2021/05/19 00:31:21;;;;;;;9.00;5.20;;;23.20;33.70;;;;;;5057551;28;20075;-88
2021/05/19 00:33:47;;;;;;;12.20;5.07;;;23.20;33.50;;;;;;5039596;28;20028;-87
2021/05/19 00:36:13;;;;;;;10.40;5.15;;;23.20;33.60;;;;;;5055805;28;20021;-88
2021/05/19 00:38:39;;;;;;;13.02;5.20;;;23.10;33.60;;;;;;5048462;28;20142;-89
2021/05/19 00:41:07;;;;;;;10.18;5.07;;;23.10;34.00;;;;;;5077131;28;20035;-87
2021/05/19 00:43:34;;;;;;;10.15;4.97;;;23.00;33.80;;;;;;5068883;28;20088;-86
2021/05/19 00:45:59;;;;;;;13.97;4.77;;;23.00;33.90;;;;;;5038226;28;20037;-88
2021/05/19 00:48:25;;;;;;;14.90;5.32;;;22.90;34.10;;;;;;5056340;28;20104;-88
2021/05/19 00:50:51;;;;;;;9.38;5.30;;;22.90;34.70;;;;;;5051276;28;20025;-87
2021/05/19 00:53:17;;;;;;;9.40;4.63;;;;;;;;;;5065436;28;20021;-87
2021/05/19 00:55:43;;;;;;;9.15;4.75;;;22.90;33.50;;;;;;5071771;28;20013;-86
2021/05/19 00:58:09;;;;;;;8.05;4.45;;;22.90;34.20;;;;;;5063817;28;20033;-87
2021/05/19 01:00:36;;;;;;;11.52;5.18;;;22.90;34.00;;;;;;5056319;28;20482;-89
2021/05/19 01:03:03;;;;;;;7.78;5.03;;;22.90;34.20;;;;;;5054722;28;20080;-87
2021/05/19 01:10:48;;;;;;;12.10;5.10;;;22.90;34.50;;;;;;5045012;28;20044;-88
2021/05/19 01:13:15;;;;;;;14.32;4.57;;;22.80;34.40;;;;;;5055045;28;20530;-88
2021/05/19 01:15:41;;;;;;;11.02;4.80;;;22.80;34.60;;;;;;5039744;28;20025;-89
2021/05/19 01:18:07;;;;;;;9.52;5.10;;;22.70;34.60;;;;;;5055987;28;20486;-88
2021/05/19 01:20:34;;;;;;;7.72;4.55;;;22.70;34.60;;;;;;5054556;28;20395;-90
2021/05/19 01:23:04;;;;;;;8.60;4.13;;;22.70;34.80;;;;;;5061884;28;20363;-90
2021/05/19 01:25:31;;;;;;;8.50;5.03;;;22.70;34.80;;;;;;5054805;28;20040;-89
2021/05/19 01:28:02;;;;;;;11.80;4.72;;;22.70;35.00;;;;;;5056613;28;20041;-89
2021/05/19 01:30:32;;;;;;;10.02;4.22;;;22.70;34.50;;;;;;5057774;28;20386;-88
2021/05/19 01:32:58;;;;;;;8.25;4.25;;;22.70;34.60;;;;;;5060382;28;20359;-88
2021/05/19 01:35:24;;;;;;;13.18;4.88;;;22.70;34.80;;;;;;5059707;28;20029;-88
2021/05/19 01:37:51;;;;;;;7.38;4.20;;;22.70;34.70;;;;;;5066636;28;20066;-88
2021/05/19 01:40:22;;;;;;;11.03;4.50;;;22.70;34.60;;;;;;5037544;28;20030;-91
2021/05/19 01:42:52;;;;;;;13.98;4.55;;;22.70;34.90;;;;;;5049405;28;20281;-89
2021/05/19 01:45:23;;;;;;;10.05;4.50;;;22.80;34.80;;;;;;5060839;28;20040;-88
2021/05/19 01:47:51;;;;;;;12.50;4.55;;;22.70;34.60;;;;;;5069743;28;20021;-90
2021/05/19 01:50:20;;;;;;;20.83;5.95;;;22.70;34.80;;;;;;5055996;28;20024;-88
2021/05/19 01:52:47;;;;;;;13.13;4.32;;;22.70;34.90;;;;;;5058460;28;20021;-88
2021/05/19 01:55:16;;;;;;;11.02;4.75;;;22.80;34.80;;;;;;5074547;28;20032;-91
2021/05/19 01:57:49;;;;;;;10.73;4.18;;;22.80;34.80;;;;;;5035888;28;20032;-90
2021/05/19 02:00:17;;;;;;;7.80;4.15;;;22.80;34.90;;;;;;5049551;28;20107;-89
2021/05/19 02:02:56;;;;;;;11.90;4.00;;;22.80;34.90;;;;;;5055769;28;20032;-91
2021/05/19 02:05:24;;;;;;;9.15;4.20;;;22.80;34.80;;;;;;5051285;28;20140;-89
2021/05/19 02:07:53;;;;;;;7.93;4.57;;;22.70;35.00;;;;;;5054795;28;20097;-86
2021/05/19 02:10:20;;;;;;;8.18;4.82;;;22.70;35.10;;;;;;5055960;28;20421;-88
2021/05/19 02:12:46;;;;;;;10.50;4.20;;;22.60;35.10;;;;;;5063329;28;20027;-89
2021/05/19 02:15:16;;;;;;;9.75;4.95;;;22.60;35.80;;;;;;5066174;28;20267;-88
2021/05/19 02:17:43;;;;;;;11.73;4.88;;;22.50;35.70;;;;;;5059439;28;20013;-88
2021/05/19 02:20:19;;;;;;;11.98;4.53;;;22.60;35.70;;;;;;5063190;28;20021;-89
2021/05/19 02:22:47;;;;;;;7.68;4.60;;;22.50;35.70;;;;;;5053044;28;20087;-87
2021/05/19 02:25:13;;;;;;;;;;;22.50;35.90;;;;;;5056814;28;20506;-86
2021/05/19 02:27:39;;;;;;;10.63;4.35;;;22.50;35.50;;;;;;5053999;28;20019;-86
2021/05/19 02:30:06;;;;;;;12.98;4.38;;;22.50;35.90;;;;;;5053924;28;20025;-85
2021/05/19 02:32:33;;;;;;;14.60;5.13;;;22.50;36.00;;;;;;5054176;28;20040;-87
2021/05/19 02:35:00;;;;;;;10.75;5.28;;;22.40;36.00;;;;;;5036006;28;20474;-86
2021/05/19 02:37:25;;;;;;;9.80;4.20;;;22.40;36.10;;;;;;5054182;28;20457;-88
2021/05/19 02:39:51;;;;;;;11.38;4.47;;;22.40;36.10;;;;;;5039794;28;20060;-87
2021/05/19 02:42:17;;;;;;;10.52;5.32;;;22.50;36.40;;;;;;5054617;28;20035;-90
2021/05/19 02:44:43;;;;;;;9.85;4.60;;;22.50;36.10;;;;;;5054669;28;20017;-88
2021/05/19 02:47:09;;;;;;;13.95;4.78;;;22.70;36.30;;;;;;5045804;28;20033;-89
2021/05/19 02:49:35;;;;;;;17.23;5.90;;;22.70;36.70;;;;;;5051256;28;20047;-88
2021/05/19 02:52:00;;;;;;;8.65;4.60;;;22.70;36.50;;;;;;5056313;28;20079;-88
2021/05/19 02:54:26;;;;;;;11.57;4.75;;;22.70;36.60;;;;;;5054778;28;20463;-90
2021/05/19 02:56:52;;;;;;;13.80;4.03;;;22.70;36.80;;;;;;5055028;28;20401;-88
2021/05/19 02:59:18;;;;;;;8.73;4.30;;;22.70;36.80;;;;;;5056263;28;20025;-89
2021/05/19 03:01:45;;;;;;;8.18;4.47;;;22.80;36.90;;;;;;5067296;28;20501;-86
2021/05/19 03:04:11;;;;;;;9.93;4.00;;;22.80;36.90;;;;;;5069849;28;20009;-87
2021/05/19 03:06:36;;;;;;;9.98;4.00;;;22.90;36.60;;;;;;5057558;28;20035;-87
2021/05/19 03:09:04;;;;;;;14.75;4.65;;;22.90;37.10;;;;;;5055001;28;20500;-89
2021/05/19 03:11:30;;;;;;;12.45;4.78;;;23.00;36.60;;;;;;5054829;28;20028;-91
2021/05/19 03:13:56;;;;;;;13.02;4.40;;;23.10;36.30;;;;;;5058640;28;20059;-89
2021/05/19 03:16:22;;;;;;;13.13;6.28;;;23.10;36.50;;;;;;5056251;28;20084;-87
2021/05/19 03:18:48;;;;;;;10.90;3.90;;;23.10;36.50;;;;;;5053891;28;20045;-89
2021/05/19 03:21:14;;;;;;;14.40;6.40;;;23.20;36.60;;;;;;5053839;28;20103;-87
2021/05/19 03:23:40;;;;;;;10.88;4.97;;;23.30;37.10;;;;;;5057822;28;20013;-87
2021/05/19 03:26:07;;;;;;;12.07;4.70;;;23.30;36.70;;;;;;5053750;28;20031;-90
2021/05/19 03:28:33;;;;;;;13.20;6.10;;;23.30;37.00;;;;;;5057698;28;20065;-88
2021/05/19 03:30:59;;;;;;;9.10;4.35;;;23.40;36.90;;;;;;5062240;28;20024;-89
2021/05/19 03:33:25;;;;;;;11.27;5.05;;;23.40;36.80;;;;;;5063644;28;20059;-87
2021/05/19 03:35:51;;;;;;;8.27;3.95;;;23.40;36.70;;;;;;5063381;28;20547;-87
2021/05/19 03:38:17;;;;;;;12.15;5.05;;;23.40;36.70;;;;;;5057331;28;20055;-87
2021/05/19 03:40:44;;;;;;;7.53;4.55;;;23.40;37.00;;;;;;5057866;28;20029;-87
2021/05/19 03:43:09;;;;;;;12.90;4.60;;;23.40;37.40;;;;;;5057101;28;20481;-90
2021/05/19 03:45:35;;;;;;;14.60;5.60;;;23.40;36.90;;;;;;5058543;28;20029;-90
2021/05/19 03:48:02;;;;;;;15.35;5.10;;;23.40;37.20;;;;;;5057644;28;20021;-87
2021/05/19 03:50:29;;;;;;;19.90;5.22;;;23.40;37.10;;;;;;5055480;28;20035;-88
2021/05/19 03:52:57;;;;;;;9.73;5.00;;;23.40;37.50;;;;;;5058243;28;20033;-86
2021/05/19 03:55:23;;;;;;;12.48;4.75;;;23.40;37.00;;;;;;5060299;28;20067;-86
2021/05/19 03:57:49;;;;;;;11.15;5.22;;;23.50;37.30;;;;;;5066087;28;20025;-88
2021/05/19 04:00:19;;;;;;;12.63;4.70;;;23.50;37.10;;;;;;5056962;28;20501;-86
2021/05/19 04:02:49;;;;;;;13.45;4.28;;;23.60;37.30;;;;;;5056026;28;20413;-89
2021/05/19 04:05:19;;;;;;;6.75;4.70;;;23.60;37.00;;;;;;5056058;28;20032;-86
2021/05/19 04:07:48;;;;;;;12.10;5.20;;;23.60;37.20;;;;;;5044456;28;20099;-87
2021/05/19 04:10:14;;;;;;;8.00;4.30;;;23.70;37.30;;;;;;5054363;28;20126;-85
2021/05/19 04:12:40;;;;;;;9.77;4.88;;;23.70;37.30;;;;;;5059535;28;20045;-88
2021/05/19 04:15:07;;;;;;;15.65;4.95;;;23.60;37.60;;;;;;5065876;28;20040;-86
2021/05/19 04:17:33;;;;;;;14.90;5.50;;;23.80;37.90;;;;;;5062885;28;20028;-90
2021/05/19 04:19:59;;;;;;;11.90;5.40;;;24.00;37.90;;;;;;5057009;28;20017;-88
2021/05/19 04:22:25;;;;;;;13.57;5.07;;;24.00;37.60;;;;;;5059179;28;20075;-91
2021/05/19 04:24:50;;;;;;;12.57;5.28;;;23.90;38.00;;;;;;5072748;28;20025;-91
2021/05/19 04:27:16;;;;;;;11.05;5.20;;;23.80;38.20;;;;;;5070991;28;20536;-89
2021/05/19 04:29:42;;;;;;;17.40;5.40;;;23.90;38.40;;;;;;5061441;28;20025;-91
2021/05/19 04:32:10;;;;;;;7.68;5.32;;;23.90;38.70;;;;;;5068014;28;20021;-88
2021/05/19 04:34:38;;;;;;;17.60;5.80;;;23.90;38.70;;;;;;5074047;28;20025;-89
2021/05/19 04:37:05;;;;;;;8.63;4.72;;;23.90;38.70;;;;;;5050456;28;20063;-90
2021/05/19 04:39:31;;;;;;;23.70;6.65;;;23.90;39.00;;;;;;5060447;28;20513;-91
2021/05/19 04:42:00;;;;;;;20.25;5.63;;;23.90;39.60;;;;;;5061509;28;20049;-90
2021/05/19 04:44:26;;;;;;;17.73;6.40;;;24.00;39.60;;;;;;5065329;28;20144;-90
2021/05/19 04:46:52;;;;;;;12.70;5.85;;;24.10;39.40;;;;;;5061868;28;20099;-90
2021/05/19 04:49:19;;;;;;;12.82;4.85;;;24.10;39.10;;;;;;5068812;28;20013;-90
2021/05/19 04:51:45;;;;;;;12.05;4.80;;;24.10;39.40;;;;;;5074644;28;20029;-89
2021/05/19 04:54:14;;;;;;;12.00;5.00;;;24.20;39.60;;;;;;5078482;28;20021;-90
2021/05/19 04:56:40;;;;;;;12.18;5.35;;;24.40;39.50;;;;;;5062820;28;20033;-89
2021/05/19 04:59:06;;;;;;;17.07;5.27;;;24.90;39.60;;;;;;5057978;28;20031;-86
2021/05/19 05:01:33;;;;;;;11.45;4.38;;;25.70;38.10;;;;;;5043889;28;20172;-89
2021/05/19 05:03:59;;;;;;;10.38;4.80;;;26.50;36.70;;;;;;5061860;28;20104;-88
2021/05/19 05:06:25;;;;;;;10.00;4.68;;;27.20;35.80;;;;;;5056428;28;20087;-87
2021/05/19 05:08:51;;;;;;;10.48;4.63;;;28.00;34.90;;;;;;5055830;28;20478;-90
2021/05/19 05:11:17;;;;;;;11.52;5.32;;;28.50;34.00;;;;;;5055883;28;20079;-88
2021/05/19 05:13:43;;;;;;;10.15;5.10;;;29.20;33.90;;;;;;5055170;28;20060;-87
2021/05/19 05:16:09;;;;;;;10.05;4.07;;;29.70;33.00;;;;;;5055379;28;20056;-87
2021/05/19 05:18:36;;;;;;;8.80;4.72;;;30.20;32.60;;;;;;5038637;28;20096;-88
2021/05/19 05:21:03;;;;;;;10.18;3.90;;;30.50;33.10;;;;;;5056472;28;20039;-89
2021/05/19 05:23:29;;;;;;;9.52;4.68;;;30.80;31.90;;;;;;5055898;28;20025;-89
2021/05/19 05:25:55;;;;;;;12.18;5.07;;;30.50;32.50;;;;;;5056648;28;20411;-86
2021/05/19 05:28:21;;;;;;;6.63;3.63;;;30.80;32.10;;;;;;5057407;28;20069;-89
2021/05/19 05:30:48;;;;;;;14.80;4.03;;;31.20;31.70;;;;;;5059305;28;20029;-90
2021/05/19 05:33:15;;;;;;;11.13;4.45;;;31.30;31.70;;;;;;5033975;28;20048;-91
2021/05/19 05:35:41;;;;;;;9.50;3.83;;;31.80;31.50;;;;;;5036060;28;20033;-88
2021/05/19 05:38:10;;;;;;;9.75;3.92;;;32.60;30.80;;;;;;5061387;28;20040;-86
2021/05/19 05:40:38;;;;;;;7.82;3.72;;;33.00;30.30;;;;;;5059988;28;20056;-91
2021/05/19 05:43:04;;;;;;;10.82;4.10;;;33.20;29.90;;;;;;5043764;28;20471;-87
2021/05/19 05:45:30;;;;;;;8.63;3.60;;;32.80;30.30;;;;;;5045199;28;20041;-90
2021/05/19 05:47:57;;;;;;;6.15;3.25;;;33.30;30.10;;;;;;5043196;28;20033;-88
2021/05/19 05:50:23;;;;;;;9.10;3.85;;;33.60;29.80;;;;;;5055833;28;20029;-91
2021/05/19 05:52:49;;;;;;;7.45;3.08;;;33.60;29.70;;;;;;5038950;28;20099;-86
2021/05/19 05:55:16;;;;;;;9.93;3.08;;;33.40;29.60;;;;;;5060379;28;20017;-88
2021/05/19 05:57:41;;;;;;;9.23;2.72;;;33.00;30.00;;;;;;5071467;28;20024;-89
2021/05/19 06:00:12;;;;;;;4.33;2.80;;;33.00;30.40;;;;;;5060494;28;20391;-88
2021/05/19 06:02:39;;;;;;;9.40;3.08;;;33.60;30.30;;;;;;5060065;28;20086;-90
2021/05/19 06:05:06;;;;;;;9.70;2.75;;;34.50;29.80;;;;;;5017080;28;20033;-89
2021/05/19 06:07:32;;;;;;;8.13;2.83;;;34.90;29.20;;;;;;5016334;28;20094;-89
2021/05/19 06:09:58;;;;;;;9.23;3.57;;;34.40;29.60;;;;;;5015062;28;20058;-88
2021/05/19 06:12:24;;;;;;;8.13;3.10;;;34.80;29.60;;;;;;5007166;28;20283;-88
2021/05/19 06:14:49;;;;;;;8.32;3.17;;;35.40;29.30;;;;;;5024121;28;20030;-88
2021/05/19 06:17:15;;;;;;;8.70;2.60;;;35.20;29.50;;;;;;5019100;28;20097;-88
2021/05/19 06:19:42;;;;;;;9.98;2.33;;;36.00;29.10;;;;;;4999252;28;20034;-89
2021/05/19 06:22:08;;;;;;;;;;;36.50;28.70;;;;;;5015062;28;20041;-90
2021/05/19 06:24:35;;;;;;;6.18;2.22;;;36.40;29.10;;;;;;5014745;28;20013;-87
2021/05/19 06:27:01;;;;;;;10.40;2.70;;;37.10;28.40;;;;;;5016583;28;20050;-89
2021/05/19 06:29:29;;;;;;;7.25;2.38;;;37.20;28.20;;;;;;5022101;28;20109;-89
2021/05/19 06:31:55;;;;;;;7.18;2.25;;;37.90;28.00;;;;;;5019525;28;20045;-88
2021/05/19 06:34:21;;;;;;;9.93;2.67;;;37.80;27.60;;;;;;5018077;28;20097;-89
2021/05/19 06:36:49;;;;;;;5.57;2.30;;;35.40;28.80;;;;;;5053927;28;20045;-86
2021/05/19 06:39:14;;;;;;;6.88;2.40;;;35.20;29.50;;;;;;5060701;28;20037;-88
2021/05/19 06:41:42;;;;;;;8.93;2.22;;;35.50;29.50;;;;;;5035844;28;20079;-89
2021/05/19 06:44:10;;;;;;;10.20;2.22;;;35.50;29.60;;;;;;5054625;28;20025;-89
2021/05/19 06:46:36;;;;;;;8.93;2.25;;;35.00;29.60;;;;;;5063624;28;20037;-89
2021/05/19 06:49:03;;;;;;;9.10;2.97;;;34.60;30.20;;;;;;5058240;28;20028;-88
2021/05/19 06:51:32;;;;;;;7.40;1.70;;;34.20;30.60;;;;;;5067993;28;20021;-89
2021/05/19 06:53:58;;;;;;;13.05;3.72;;;34.00;31.10;;;;;;5060123;28;20024;-91
2021/05/19 06:56:25;;;;;;;10.77;2.73;;;32.50;33.00;;;;;;5060554;28;20033;-89
2021/05/19 06:58:51;;;;;;;9.32;2.63;;;33.50;32.30;;;;;;5065188;28;20273;-91
2021/05/19 07:01:16;;;;;;;6.75;2.25;;;33.60;32.20;;;;;;5063362;28;20358;-89
2021/05/19 07:03:42;;;;;;;10.30;2.10;;;32.80;32.00;;;;;;5053272;28;20017;-90
2021/05/19 07:06:08;;;;;;;10.20;2.20;;;32.10;32.90;;;;;;5069394;28;20029;-88
2021/05/19 07:08:34;;;;;;;6.93;2.20;;;31.10;34.40;;;;;;5061666;28;20020;-89
2021/05/19 07:11:00;;;;;;;8.63;1.87;;;31.40;34.80;;;;;;5053566;28;20068;-89
2021/05/19 07:13:29;;;;;;;9.70;1.67;;;31.30;35.40;;;;;;5062093;28;20095;-91
2021/05/19 07:15:56;;;;;;;8.75;2.00;;;31.60;35.20;;;;;;5063806;28;20509;-90
2021/05/19 07:18:22;;;;;;;8.82;2.30;;;32.20;34.60;;;;;;5045338;28;20045;-90
2021/05/19 07:20:49;;;;;;;6.70;1.90;;;31.40;34.70;;;;;;5061574;28;20101;-89
2021/05/19 07:23:14;;;;;;;;;;;30.40;36.90;;;;;;5061767;28;20082;-89
2021/05/19 07:25:42;;;;;;;8.50;1.83;;;30.90;36.90;;;;;;5061589;28;20329;-90
2021/05/19 07:28:08;;;;;;;7.82;1.80;;;31.30;36.50;;;;;;5052744;28;20053;-87
2021/05/19 07:30:35;;;;;;;8.70;2.35;;;31.50;36.30;;;;;;5073240;28;20033;-89
2021/05/19 07:33:02;;;;;;;7.85;1.63;;;31.40;35.40;;;;;;5070832;28;20025;-91
2021/05/19 07:35:28;;;;;;;6.88;1.65;;;31.10;36.70;;;;;;5044695;28;20029;-88
2021/05/19 07:37:54;;;;;;;;;;;30.80;36.50;;;;;;5056186;28;20105;-85
2021/05/19 07:40:21;;;;;;;10.88;1.98;;;31.50;36.20;;;;;;5059390;28;19905;-88
2021/05/19 07:42:47;;;;;;;6.85;1.60;;;32.90;35.20;;;;;;5060293;28;20052;-88
2021/05/19 07:45:13;;;;;;;6.70;1.77;;;34.80;33.10;;;;;;5058873;28;20356;-89
2021/05/19 07:47:39;;;;;;;4.80;1.55;;;34.80;32.10;;;;;;5045941;28;20037;-88
2021/05/19 07:50:06;;;;;;;10.37;2.10;;;33.20;33.20;;;;;;5058870;28;20451;-89
2021/05/19 07:52:32;;;;;;;5.30;1.30;;;33.30;34.10;;;;;;5061952;28;20025;-90
2021/05/19 07:54:58;;;;;;;6.32;4.20;;;34.00;33.20;;;;;;5061921;28;20017;-90
2021/05/19 07:57:39;;;;;;;7.78;2.45;;;33.10;33.70;;;;;;5070437;28;20029;-90
2021/05/19 08:00:18;;;;;;;5.13;1.55;;;33.10;34.60;;;;;;5071749;28;20112;-89
2021/05/19 08:02:44;;;;;;;5.03;2.15;;;33.40;33.60;;;;;;5059490;28;20037;-92
2021/05/19 08:05:11;;;;;;;3.38;1.83;;;33.80;34.10;;;;;;5059721;28;20052;-91
2021/05/19 08:07:36;;;;;;;;;;;34.00;32.90;;;;;;5061358;28;20029;-90
2021/05/19 08:10:03;;;;;;;7.22;2.22;;;32.30;34.30;;;;;;5068715;28;19911;-91
2021/05/19 08:12:30;;;;;;;5.30;2.00;;;30.80;37.10;;;;;;5048359;28;20394;-92
2021/05/19 08:14:56;;;;;;;3.42;1.75;;;31.10;38.10;;;;;;5062839;28;20546;-88
2021/05/19 08:17:22;;;;;;;6.83;2.50;;;32.80;36.20;;;;;;5057428;28;20017;-93
2021/05/19 08:19:48;;;;;;;4.60;1.87;;;32.70;34.60;;;;;;5060209;28;20088;-89
2021/05/19 08:22:14;;;;;;;2.97;2.00;;;33.10;34.40;;;;;;5061471;28;20021;-88
2021/05/19 08:24:44;;;;;;;3.72;1.80;;;33.00;33.50;;;;;;5057897;28;20036;-90
2021/05/19 08:27:11;;;;;;;3.67;1.90;;;32.30;33.70;;;;;;5058484;28;20780;-90
2021/05/19 08:29:37;;;;;;;3.40;2.00;;;30.70;35.60;;;;;;5058111;28;20529;-90
2021/05/19 08:32:04;;;;;;;6.63;2.50;;;30.20;37.60;;;;;;5030539;28;20033;-91
2021/05/19 08:34:30;;;;;;;4.35;2.80;;;30.60;37.50;;;;;;5052554;28;20418;-90
2021/05/19 08:36:56;;;;;;;5.30;2.90;;;30.20;37.80;;;;;;5059015;28;20032;-89
2021/05/19 08:39:22;;;;;;;4.25;2.65;;;29.20;38.50;;;;;;5043949;28;20017;-91
2021/05/19 08:41:49;;;;;;;9.83;3.33;;;30.10;39.00;;;;;;5059743;28;20052;-88
2021/05/19 08:44:16;;;;;;;5.30;2.50;;;29.90;37.60;;;;;;5061185;28;20021;-91
2021/05/19 08:46:43;;;;;;;;;;;30.70;37.90;;;;;;5059528;28;20037;-91
2021/05/19 08:49:10;;;;;;;6.13;2.40;;;32.10;36.10;;;;;;5059809;28;20374;-91
2021/05/19 08:51:36;;;;;;;5.68;2.75;;;32.50;34.40;;;;;;5059907;28;20080;-90
2021/05/19 08:54:04;;;;;;;6.75;2.80;;;32.80;34.20;;;;;;5057643;28;20029;-91
2021/05/19 08:56:30;;;;;;;6.45;3.00;;;33.60;33.70;;;;;;5059079;28;20055;-90
2021/05/19 08:58:56;;;;;;;3.90;2.25;;;34.90;32.60;;;;;;5061683;28;20017;-90
2021/05/19 09:01:23;;;;;;;5.75;2.55;;;36.00;31.00;;;;;;5053436;28;20051;-90
2021/05/19 09:04:06;;;;;;;11.35;3.58;;;32.80;32.60;;;;;;5045591;28;20048;-90
2021/05/19 09:06:32;;;;;;;3.90;3.35;;;32.10;34.20;;;;;;5055520;28;20551;-88
2021/05/19 09:08:58;;;;;;;7.97;3.80;;;31.60;35.00;;;;;;5038413;28;20031;-90
2021/05/19 09:11:24;;;;;;;6.83;4.77;;;31.90;35.70;;;;;;5052316;28;20115;-89
2021/05/19 09:13:50;;;;;;;5.40;3.27;;;32.10;35.40;;;;;;5057050;28;20021;-89
2021/05/19 09:16:29;;;;;;;7.17;4.37;;;32.00;35.40;;;;;;5040209;28;20035;-89
2021/05/19 09:18:58;;;;;;;10.45;4.28;;;31.50;36.20;;;;;;5056575;28;20017;-89
2021/05/19 09:21:40;;;;;;;7.72;3.50;;;32.00;35.90;;;;;;5057027;28;20421;-89
2021/05/19 09:24:33;;;;;;;6.07;3.28;;;32.10;34.80;;;;;;5042939;28;20025;-89
2021/05/19 09:27:01;;;;;;;7.95;3.90;;;31.00;35.70;;;;;;5054552;28;20056;-89
2021/05/19 09:29:30;;;;;;;6.40;4.07;;;31.50;36.50;;;;;;5059190;28;20049;-89
2021/05/19 09:32:05;;;;;;;10.27;4.60;;;33.50;34.90;;;;;;5058202;28;20017;-89
2021/05/19 09:34:39;;;;;;;6.75;3.80;;;35.90;32.60;;;;;;5058558;28;20093;-88
2021/05/19 09:37:13;;;;;;;7.95;3.20;;;39.00;29.80;;;;;;5060596;28;20021;-89
2021/05/19 09:39:51;;;;;;;7.63;3.40;;;39.30;29.40;;;;;;5059872;28;20033;-89
2021/05/19 09:42:20;;;;;;;5.10;2.67;;;39.70;28.50;;;;;;5044109;28;20442;-90
2021/05/19 09:44:48;;;;;;;5.55;2.95;;;39.10;28.20;;;;;;5057572;28;20048;-91
2021/05/19 09:47:34;;;;;;;7.03;3.45;;;38.20;28.80;;;;;;5036271;28;20025;-92
2021/05/19 09:50:00;;;;;;;10.48;3.80;;;37.80;29.30;;;;;;5040349;28;20036;-88
2021/05/19 09:52:26;;;;;;;8.27;3.40;;;37.10;29.40;;;;;;5040757;28;20177;-89
2021/05/19 09:54:52;;;;;;;6.43;3.55;;;36.30;29.90;;;;;;5059377;28;20044;-92
2021/05/19 09:57:19;;;;;;;5.88;3.40;;;36.30;30.50;;;;;;5062694;28;20031;-91
2021/05/19 09:59:46;;;;;;;5.88;3.00;;;36.40;30.40;;;;;;5072026;28;20033;-91
2021/05/19 10:02:14;;;;;;;;;;;35.40;30.90;;;;;;5065183;28;20017;-89
2021/05/19 10:07:11;;;;;;;6.85;4.20;;;33.20;33.40;;;;;;5057653;28;20113;-89
2021/05/19 10:09:38;;;;;;;5.15;3.67;;;33.60;32.80;;;;;;5058012;28;20025;-90
2021/05/19 10:12:04;;;;;;;6.90;3.83;;;33.70;31.90;;;;;;5040180;28;20093;-89
2021/05/19 10:14:33;;;;;;;6.65;3.55;;;32.60;33.40;;;;;;5041702;28;20086;-89
2021/05/19 10:17:06;;;;;;;10.25;4.25;;;31.50;34.80;;;;;;5042627;28;20021;-89
2021/05/19 10:19:39;;;;;;;5.22;3.50;;;31.10;35.40;;;;;;5064732;28;20084;-89
2021/05/19 10:22:11;;;;;;;4.75;3.53;;;31.20;35.30;;;;;;5065805;28;20017;-90
2021/05/19 10:25:18;;;;;;;6.20;3.67;;;30.50;35.40;;;;;;5045965;28;20028;-88
2021/05/19 10:27:52;;;;;;;4.85;4.10;;;29.30;36.80;;;;;;5073233;28;20053;-90
2021/05/19 10:30:35;;;;;;;5.18;4.53;;;28.10;39.40;;;;;;5072166;28;20017;-89
2021/05/19 10:33:01;;;;;;;4.88;4.30;;;27.70;40.60;;;;;;5063238;28;20047;-88
2021/05/19 10:35:35;;;;;;;7.93;4.82;;;27.60;41.50;;;;;;5062552;28;20039;-90
2021/05/19 10:38:23;;;;;;;5.90;3.80;;;27.80;40.70;;;;;;5055888;28;20100;-91
2021/05/19 10:40:54;;;;;;;11.48;5.15;;;27.70;41.10;;;;;;5039522;28;20049;-90
2021/05/19 10:43:21;;;;;;;8.77;5.30;;;27.50;41.50;;;;;;5047384;28;20024;-90
2021/05/19 10:45:55;;;;;;;6.85;4.75;;;27.60;41.80;;;;;;5061994;28;20033;-90
2021/05/19 10:48:35;;;;;;;12.75;4.85;;;27.80;41.10;;;;;;5045858;28;20036;-91
2021/05/19 10:51:46;;;;;;;8.50;4.75;;;27.90;40.90;;;;;;5059811;28;20116;-91
2021/05/19 11:00:12;;;;;;;9.88;4.72;;;28.00;41.70;;;;;;5062001;28;20821;-89
2021/05/19 11:05:38;;;;;;;7.43;4.28;;;27.90;40.70;;;;;;5058106;28;20382;-88
2021/05/19 11:08:07;;;;;;;5.22;4.07;;;27.30;42.10;;;;;;5060666;28;20036;-91
2021/05/19 11:10:47;;;;;;;9.43;4.05;;;27.10;43.00;;;;;;5043734;28;20029;-89
2021/05/19 11:13:14;;;;;;;7.32;4.03;;;27.00;42.90;;;;;;5061821;28;20100;-89
2021/05/19 11:15:50;;;;;;;6.43;4.78;;;27.00;43.10;;;;;;5061925;28;20509;-88
2021/05/19 11:18:18;;;;;;;6.25;4.20;;;27.10;43.00;;;;;;5057197;28;20025;-86
2021/05/19 11:20:47;;;;;;;5.95;4.15;;;26.90;42.90;;;;;;5065013;28;20025;-90
2021/05/19 11:23:14;;;;;;;4.70;3.30;;;26.60;42.30;;;;;;5061944;28;20021;-89
2021/05/19 11:25:41;;;;;;;6.15;4.20;;;26.30;42.60;;;;;;5064375;28;20092;-89
2021/05/19 11:28:07;;;;;;;6.40;4.28;;;26.10;43.30;;;;;;5060955;28;20076;-89
2021/05/19 11:30:33;;;;;;;7.95;4.93;;;26.20;43.80;;;;;;5058494;28;20036;-89
2021/05/19 11:33:16;;;;;;;8.90;5.07;;;26.30;43.70;;;;;;5058284;28;20021;-90
2021/05/19 11:35:46;;;;;;;8.27;4.15;;;26.40;43.00;;;;;;5059373;28;20033;-88
2021/05/19 11:38:13;;;;;;;7.25;4.97;;;26.70;43.40;;;;;;5058826;28;20466;-89
2021/05/19 11:40:49;;;;;;;;;;;27.00;43.20;;;;;;5058979;28;20032;-88
2021/05/19 11:43:18;;;;;;;7.55;4.72;;;27.30;42.80;;;;;;5059341;28;19968;-89
2021/05/19 11:45:46;;;;;;;5.20;4.53;;;27.40;42.70;;;;;;5058901;28;20401;-88
2021/05/19 11:48:19;;;;;;;10.05;5.30;;;27.50;42.40;;;;;;5058497;28;20343;-89
2021/05/19 11:50:46;;;;;;;5.00;4.55;;;27.50;42.90;;;;;;5058786;28;20032;-89
2021/05/19 11:53:13;;;;;;;4.93;4.47;;;27.50;42.60;;;;;;5058141;28;20045;-88
2021/05/19 11:55:51;;;;;;;7.40;5.10;;;27.40;42.60;;;;;;5049319;28;20727;-88
2021/05/19 11:58:21;;;;;;;8.88;4.47;;;27.20;42.40;;;;;;5067121;28;20031;-86
2021/05/19 12:00:53;;;;;;;11.10;5.35;;;27.10;41.80;;;;;;5063575;28;20028;-88
2021/05/19 12:03:21;;;;;;;9.00;5.55;;;26.80;41.90;;;;;;5056646;28;20021;-91
2021/05/19 12:06:07;;;;;;;8.95;5.18;;;26.60;41.30;;;;;;5048853;28;20036;-89
2021/05/19 12:08:44;;;;;;;8.73;5.27;;;26.20;41.30;;;;;;5052154;28;20081;-89
2021/05/19 12:11:16;;;;;;;6.60;5.55;;;26.00;42.40;;;;;;5050922;28;20025;-89
2021/05/19 12:14:04;;;;;;;11.05;5.90;;;25.80;42.30;;;;;;5058770;28;20100;-88
2021/05/19 12:16:30;;;;;;;10.57;6.45;;;25.80;42.50;;;;;;5061503;28;20039;-86
2021/05/19 12:19:08;;;;;;;7.38;5.60;;;25.70;42.70;;;;;;5069045;28;20482;-88
2021/05/19 12:21:46;;;;;;;7.95;5.15;;;25.60;43.20;;;;;;5070598;28;20063;-88
2021/05/19 12:24:14;;;;;;;7.70;6.28;;;25.60;42.40;;;;;;5040184;28;20021;-87
2021/05/19 12:26:40;;;;;;;13.43;6.90;;;25.20;43.50;;;;;;5056031;28;20048;-88
2021/05/19 12:29:40;;;;;;;10.35;6.30;;;25.10;44.40;;;;;;5064111;28;20531;-89
2021/05/19 12:32:24;;;;;;;9.75;6.13;;;25.20;44.50;;;;;;5057602;28;20372;-89
2021/05/19 12:35:20;;;;;;;5.80;4.95;;;25.50;44.40;;;;;;5060615;28;20025;-88
2021/05/19 12:37:53;;;;;;;10.52;7.72;;;25.80;43.50;;;;;;5054766;28;20374;-89
2021/05/19 12:40:24;;;;;;;11.73;6.63;;;25.70;44.30;;;;;;5046703;28;20028;-90
2021/05/19 12:42:55;;;;;;;9.32;6.50;;;26.00;44.50;;;;;;5057049;28;20071;-89
2021/05/19 12:45:37;;;;;;;7.15;6.32;;;26.30;44.20;;;;;;5030493;28;20039;-89
2021/05/19 12:48:15;;;;;;;9.85;6.72;;;26.70;43.60;;;;;;5049320;28;20112;-88
2021/05/19 12:50:58;;;;;;;11.48;6.68;;;26.90;43.10;;;;;;5055704;28;20115;-87
2021/05/19 12:53:36;;;;;;;6.85;5.75;;;27.10;42.70;;;;;;5056175;28;20021;-87
2021/05/19 12:56:03;;;;;;;10.75;6.97;;;27.20;42.00;;;;;;5055574;28;20060;-88
2021/05/19 12:58:29;;;;;;;9.48;6.72;;;27.20;42.00;;;;;;5055853;28;20033;-88
2021/05/19 13:00:57;;;;;;;9.38;6.45;;;27.20;41.70;;;;;;5058196;28;20032;-88
2021/05/19 13:03:32;;;;;;;8.32;6.22;;;27.10;41.80;;;;;;5038821;28;20051;-87
2021/05/19 13:06:11;;;;;;;10.80;6.57;;;27.00;42.10;;;;;;5057864;28;20101;-87
2021/05/19 13:08:38;;;;;;;8.68;5.72;;;26.90;42.30;;;;;;5057340;28;20017;-87
2021/05/19 13:11:09;;;;;;;7.65;6.50;;;26.60;42.70;;;;;;5056362;28;20033;-87